createdAt,value
2022-11-15T00:00:50.167Z,100914.38
2022-11-15T00:08:09.891Z,100886.78
2022-11-15T00:11:04.575Z,100913.28
2022-11-15T00:13:52.949Z,100967.69
2022-11-15T00:16:50.797Z,100896.03
2022-11-15T00:19:39.315Z,100964.16
2022-11-15T00:23:04.869Z,100953.28
2022-11-15T00:26:00.344Z,100762.19
2022-11-15T00:29:00.251Z,100958.28
2022-11-15T00:31:52.798Z,100806.44
2022-11-15T00:34:53.154Z,100948.72
2022-11-15T00:37:41.298Z,100860.34
2022-11-15T00:40:34.307Z,100927.44
2022-11-15T00:43:23.000Z,100773.03
2022-11-15T00:46:40.589Z,100946.03
2022-11-15T00:49:28.845Z,100880.78
2022-11-15T00:52:21.655Z,100961.34
2022-11-15T00:55:10.679Z,100961.06
2022-11-15T00:58:29.874Z,100967.09
2022-11-15T01:01:55.699Z,100972.31
2022-11-15T01:05:39.638Z,100976.84
2022-11-15T01:09:04.055Z,100968.78
2022-11-15T01:12:19.340Z,100971.47
2022-11-15T01:15:34.617Z,100965.56
2022-11-15T01:18:22.464Z,100949.75
2022-11-15T01:21:11.269Z,100914.44
2022-11-15T01:23:59.806Z,100895.19
2022-11-15T01:27:13.988Z,100956.16
2022-11-15T01:30:03.223Z,100736.91
2022-11-15T01:32:53.806Z,100956.75
2022-11-15T01:35:43.272Z,100849.72
2022-11-15T01:38:37.493Z,100793.47
2022-11-15T01:41:27.817Z,100837.66
2022-11-15T01:44:47.701Z,100726.13
2022-11-15T01:47:39.755Z,100741.13
2022-11-15T01:50:33.338Z,100858.22
2022-11-15T01:53:26.111Z,100800.25
2022-11-15T01:56:18.249Z,100784.56
2022-11-15T01:59:10.178Z,100872.63
2022-11-15T02:02:11.449Z,100753.91
2022-11-15T02:05:03.482Z,100893.47
2022-11-15T02:08:04.759Z,100664.63
2022-11-15T02:10:54.048Z,100690.22
2022-11-15T02:13:43.922Z,100853.91
2022-11-15T02:16:45.695Z,100650.09
2022-11-15T02:19:59.393Z,100895.91
2022-11-15T02:23:06.762Z,100884.66
2022-11-15T02:26:16.633Z,100806.50
2022-11-15T02:29:11.650Z,100877.91
2022-11-15T02:32:11.654Z,100631.78
2022-11-15T02:35:12.288Z,100430.13
2022-11-15T02:38:19.863Z,100725.94
2022-11-15T02:41:11.957Z,100710.63
2022-11-15T02:44:05.023Z,100793.91
2022-11-15T02:47:15.089Z,100863.47
2022-11-15T02:50:27.482Z,100860.13
2022-11-15T02:53:17.334Z,100854.91
2022-11-15T02:56:23.350Z,100839.44
2022-11-15T02:59:26.161Z,100835.91
2022-11-15T03:02:32.597Z,100664.94
2022-11-15T03:05:31.577Z,100750.63
2022-11-15T03:08:28.747Z,100752.13
2022-11-15T03:11:19.629Z,100651.56
2022-11-15T03:14:26.354Z,100737.16
2022-11-15T03:17:50.415Z,100807.00
2022-11-15T03:20:39.746Z,100598.66
2022-11-15T03:23:30.809Z,100802.63
2022-11-15T03:26:26.397Z,100562.97
2022-11-15T03:29:45.701Z,100789.38
2022-11-15T03:33:03.361Z,100788.53
2022-11-15T03:35:54.813Z,100781.00
2022-11-15T03:38:56.093Z,100693.38
2022-11-15T03:41:51.336Z,100783.53
2022-11-15T03:44:49.400Z,100787.69
2022-11-15T03:47:48.168Z,100766.41
2022-11-15T03:50:45.965Z,100705.50
2022-11-15T03:53:36.488Z,100700.75
2022-11-15T03:56:36.719Z,100726.88
2022-11-15T03:59:25.207Z,100760.22
2022-11-15T04:02:12.371Z,100460.50
2022-11-15T04:05:00.672Z,100517.00
2022-11-15T04:08:19.116Z,100727.31
2022-11-15T04:11:08.540Z,100740.44
2022-11-15T04:14:02.922Z,100639.09
2022-11-15T04:16:51.734Z,100626.00
2022-11-15T04:20:45.411Z,100698.50
2022-11-15T04:24:08.606Z,100694.44
2022-11-15T04:27:02.639Z,100618.31
2022-11-15T04:30:02.716Z,100624.69
2022-11-15T04:32:55.586Z,100709.41
2022-11-15T04:35:44.713Z,100585.94
2022-11-15T04:38:36.060Z,100652.44
2022-11-15T04:41:24.224Z,100660.63
2022-11-15T04:44:44.710Z,100726.41
2022-11-15T04:48:03.853Z,100725.75
2022-11-15T04:52:04.877Z,100720.84
2022-11-15T04:54:53.955Z,100727.19
2022-11-15T04:58:45.712Z,100715.59
2022-11-15T05:01:44.536Z,100725.66
2022-11-15T05:04:31.237Z,100718.66
2022-11-15T05:07:18.609Z,100479.50
2022-11-15T05:10:06.483Z,100683.41
2022-11-15T05:12:53.418Z,100625.75
2022-11-15T05:15:40.523Z,100729.75
2022-11-15T05:18:30.032Z,100712.81
2022-11-15T05:21:17.601Z,100676.78
2022-11-15T05:24:05.437Z,100644.91
2022-11-15T05:26:52.551Z,100619.00
2022-11-15T05:29:39.467Z,100704.22
2022-11-15T05:32:26.517Z,100663.38
2022-11-15T05:35:17.527Z,100554.94
2022-11-15T05:38:05.192Z,100468.47
2022-11-15T05:40:52.312Z,100704.72
2022-11-15T05:43:43.363Z,100701.72
2022-11-15T05:46:31.690Z,100688.13
2022-11-15T05:49:23.106Z,100682.41
2022-11-15T05:52:14.316Z,100661.41
2022-11-15T05:55:01.852Z,100674.00
2022-11-15T05:57:48.541Z,100687.13
2022-11-15T06:00:36.118Z,100683.78
2022-11-15T06:03:23.223Z,100514.16
2022-11-15T06:06:16.237Z,100428.81
2022-11-15T06:09:05.339Z,100628.53
2022-11-15T06:11:52.030Z,100669.19
2022-11-15T06:14:38.911Z,100664.50
2022-11-15T06:17:26.069Z,100663.13
2022-11-15T06:20:13.544Z,100671.19
2022-11-15T06:23:00.873Z,100624.13
2022-11-15T06:25:50.230Z,100652.03
2022-11-15T06:28:36.995Z,100544.47
2022-11-15T06:31:24.059Z,100572.38
2022-11-15T06:34:11.218Z,100629.81
2022-11-15T06:36:58.326Z,100623.09
2022-11-15T06:39:45.422Z,100637.03
2022-11-15T06:42:33.743Z,100645.44
2022-11-15T06:45:20.699Z,100586.75
2022-11-15T06:48:08.554Z,100619.03
2022-11-15T06:50:56.085Z,100677.66
2022-11-15T06:53:43.194Z,100593.81
2022-11-15T06:56:29.996Z,100687.75
2022-11-15T06:59:18.255Z,100690.28
2022-11-15T07:02:06.046Z,100679.72
2022-11-15T07:04:53.412Z,100702.75
2022-11-15T07:07:40.377Z,100676.88
2022-11-15T07:10:28.439Z,100685.31
2022-11-15T07:13:16.187Z,100606.00
2022-11-15T07:16:06.319Z,100685.47
2022-11-15T07:18:53.219Z,100684.63
2022-11-15T07:21:40.179Z,100652.72
2022-11-15T07:24:28.231Z,100688.16
2022-11-15T07:27:15.434Z,100653.38
2022-11-15T07:30:03.334Z,100687.63
2022-11-15T07:32:55.019Z,100671.88
2022-11-15T07:35:43.645Z,100670.22
2022-11-15T07:38:31.440Z,100678.25
2022-11-15T07:41:18.316Z,100685.31
2022-11-15T07:44:05.569Z,100678.25
2022-11-15T07:46:52.246Z,100660.28
2022-11-15T07:49:40.740Z,100570.59
2022-11-15T07:52:27.965Z,100690.50
2022-11-15T07:55:15.035Z,100636.97
2022-11-15T07:58:05.286Z,100649.06
2022-11-15T08:00:52.233Z,100673.91
2022-11-15T08:03:39.444Z,100609.41
2022-11-15T08:06:27.565Z,100638.00
2022-11-15T08:09:15.602Z,100605.91
2022-11-15T08:12:03.656Z,100662.50
2022-11-15T08:14:50.215Z,100656.47
2022-11-15T08:17:37.606Z,100579.88
2022-11-15T08:20:25.010Z,100516.06
2022-11-15T08:23:14.479Z,100649.75
2022-11-15T08:26:05.572Z,100647.06
2022-11-15T08:28:52.464Z,100642.53
2022-11-15T08:31:39.836Z,100618.19
2022-11-15T08:34:26.760Z,100632.63
2022-11-15T08:37:13.875Z,100637.81
2022-11-15T08:40:02.073Z,100636.66
2022-11-15T08:42:49.489Z,100635.66
2022-11-15T08:45:37.327Z,100635.66
2022-11-15T08:48:24.771Z,100625.59
2022-11-15T08:51:11.727Z,100618.03
2022-11-15T08:53:59.023Z,100626.94
2022-11-15T08:56:47.199Z,100626.44
2022-11-15T08:59:34.870Z,100633.03
2022-11-15T09:02:21.855Z,100630.69
2022-11-15T09:05:10.271Z,100635.22
2022-11-15T09:07:57.734Z,100623.97
2022-11-15T09:10:44.500Z,100629.16
2022-11-15T09:13:33.230Z,100632.53
2022-11-15T09:16:20.302Z,100620.09
2022-11-15T09:19:11.649Z,100626.31
2022-11-15T09:21:59.191Z,100617.25
2022-11-15T09:24:46.217Z,100631.34
2022-11-15T09:27:33.493Z,100596.91
2022-11-15T09:30:22.002Z,100622.09
2022-11-15T09:33:09.944Z,100525.22
2022-11-15T09:36:01.525Z,100617.06
2022-11-15T09:38:48.481Z,100617.44
2022-11-15T09:42:10.133Z,100579.44
2022-11-15T09:45:15.700Z,100596.25
2022-11-15T09:48:38.328Z,100615.91
2022-11-15T09:51:35.591Z,100546.72
2022-11-15T09:54:51.033Z,100606.00
2022-11-15T09:57:16.367Z,100588.34
2022-11-15T10:00:23.779Z,100598.91
2022-11-15T10:03:05.378Z,100577.59
2022-11-15T10:05:42.980Z,100580.13
2022-11-15T10:08:27.938Z,100578.28
2022-11-15T10:11:30.462Z,100594.94
2022-11-15T10:13:51.389Z,100606.53
2022-11-15T10:16:48.807Z,100413.53
2022-11-15T10:19:26.183Z,100554.28
2022-11-15T10:22:08.897Z,100598.09
2022-11-15T10:24:42.499Z,100592.72
2022-11-15T10:27:14.150Z,100589.03
2022-11-15T10:29:46.105Z,100522.06
2022-11-15T10:32:15.759Z,100563.19
2022-11-15T10:34:44.721Z,100552.28
2022-11-15T10:37:14.678Z,100402.16
2022-11-15T10:39:43.161Z,100421.09
2022-11-15T10:42:19.877Z,100543.72
2022-11-15T10:44:48.498Z,100527.59
2022-11-15T10:47:28.532Z,100526.09
2022-11-15T10:50:08.883Z,100515.50
2022-11-15T10:52:46.889Z,100408.00
2022-11-15T10:55:28.419Z,100514.16
2022-11-15T10:57:59.807Z,100417.91
2022-11-15T11:00:38.008Z,100475.72
2022-11-15T11:03:09.279Z,100450.44
2022-11-15T11:05:42.161Z,100483.38
2022-11-15T11:08:26.085Z,100484.22
2022-11-15T11:11:01.291Z,100477.22
2022-11-15T11:13:32.002Z,100473.47
2022-11-15T11:16:22.266Z,100363.53
2022-11-15T11:19:04.294Z,100334.69
2022-11-15T11:21:46.032Z,100359.13
2022-11-15T11:24:26.882Z,100429.66
2022-11-15T11:27:10.204Z,100308.53
2022-11-15T11:29:53.899Z,100156.22
2022-11-15T11:32:43.142Z,100447.41
2022-11-15T11:35:17.783Z,100448.06
2022-11-15T11:37:50.237Z,100439.50
2022-11-15T11:40:31.835Z,100408.97
2022-11-15T11:43:09.516Z,100423.72
2022-11-15T11:45:57.363Z,100418.00
2022-11-15T11:48:42.266Z,100319.34
2022-11-15T11:51:18.166Z,100395.84
2022-11-15T11:53:53.269Z,100398.53
2022-11-15T11:56:27.641Z,100396.03
2022-11-15T11:59:00.416Z,100361.44
2022-11-15T12:01:34.935Z,100177.81
2022-11-15T12:04:11.801Z,100351.97
2022-11-15T12:06:47.444Z,100258.59
2022-11-15T12:09:22.465Z,100353.31
2022-11-15T12:11:57.435Z,100355.81
2022-11-15T12:14:36.508Z,100345.00
2022-11-15T12:17:05.468Z,100222.19
2022-11-15T12:19:34.092Z,100329.34
2022-11-15T12:22:07.135Z,100331.84
2022-11-15T12:24:41.154Z,100302.59
2022-11-15T12:27:28.449Z,100329.78
2022-11-15T12:30:00.157Z,100016.97
2022-11-15T12:32:31.927Z,100332.09
2022-11-15T12:35:01.601Z,100324.88
2022-11-15T12:37:52.148Z,100326.72
2022-11-15T12:40:26.052Z,100322.19
2022-11-15T12:43:18.603Z,100324.88
2022-11-15T12:45:48.124Z,100310.78
2022-11-15T12:48:58.996Z,100298.81
2022-11-15T12:52:07.314Z,100293.81
2022-11-15T12:55:12.309Z,100284.25
2022-11-15T12:57:45.604Z,100284.25
2022-11-15T13:00:42.792Z,100280.53
2022-11-15T13:03:29.079Z,100272.66
2022-11-15T13:06:31.500Z,100236.97
2022-11-15T13:09:01.514Z,100006.69
2022-11-15T13:12:00.885Z,100244.28
2022-11-15T13:14:50.172Z,100229.94
2022-11-15T13:17:44.884Z,100182.25
2022-11-15T13:20:25.510Z,100235.91
2022-11-15T13:23:03.291Z,100235.56
2022-11-15T13:26:05.082Z,100241.03
2022-11-15T13:28:36.575Z,100239.81
2022-11-15T13:31:20.516Z,100240.94
2022-11-15T13:33:49.331Z,100226.66
2022-11-15T13:36:22.528Z,100186.66
2022-11-15T13:38:59.316Z,100224.81
2022-11-15T13:41:30.763Z,100163.53
2022-11-15T13:44:01.541Z,100224.34
2022-11-15T13:46:30.999Z,100218.75
2022-11-15T13:49:02.116Z,100008.03
2022-11-15T13:51:36.317Z,100218.03
2022-11-15T13:54:15.048Z,100208.38
2022-11-15T13:56:47.998Z,100192.06
2022-11-15T13:59:26.605Z,100041.78
2022-11-15T14:01:56.193Z,100197.03
2022-11-15T14:04:30.830Z,100153.44
2022-11-15T14:07:02.292Z,100102.41
2022-11-15T14:09:36.664Z,100134.72
2022-11-15T14:12:28.809Z,100186.09
2022-11-15T14:14:57.360Z,100182.00
2022-11-15T14:17:38.263Z,100172.53
2022-11-15T14:20:28.527Z,100093.59
2022-11-15T14:22:58.338Z,100115.00
2022-11-15T14:25:28.219Z,100158.94
2022-11-15T14:28:16.682Z,100163.56
2022-11-15T14:30:48.330Z,100148.72
2022-11-15T14:33:26.294Z,100177.75
2022-11-15T14:35:56.434Z,100173.84
2022-11-15T14:38:25.192Z,100170.13
2022-11-15T14:40:55.039Z,100048.63
2022-11-15T14:43:25.096Z,99990.00
2022-11-15T14:45:53.539Z,99987.28
2022-11-15T14:48:24.159Z,100139.66
2022-11-15T14:50:54.945Z,100105.03
2022-11-15T14:53:24.493Z,100092.00
2022-11-15T14:55:53.086Z,100021.66
2022-11-15T14:58:21.594Z,100120.09
2022-11-15T15:00:51.518Z,100001.59
2022-11-15T15:03:20.070Z,100136.38
2022-11-15T15:05:48.683Z,100110.53
2022-11-15T15:08:17.323Z,100135.47
2022-11-15T15:10:47.807Z,100089.25
2022-11-15T15:13:20.574Z,100160.38
2022-11-15T15:15:52.236Z,100071.41
2022-11-15T15:18:21.522Z,100157.66
2022-11-15T15:21:01.205Z,100156.22
2022-11-15T15:23:32.062Z,100029.91
2022-11-15T15:26:01.027Z,100091.63
2022-11-15T15:28:34.289Z,100128.91
2022-11-15T15:31:04.897Z,100022.97
2022-11-15T15:33:34.352Z,100125.13
2022-11-15T15:36:04.179Z,100135.91
2022-11-15T15:38:33.082Z,99865.47
2022-11-15T15:41:04.051Z,100071.59
2022-11-15T15:43:32.459Z,100073.47
2022-11-15T15:46:04.509Z,100116.78
2022-11-15T15:48:38.357Z,100116.16
2022-11-15T15:51:14.054Z,100107.44
2022-11-15T15:53:47.130Z,99943.91
2022-11-15T15:56:15.626Z,100080.38
2022-11-15T15:58:44.184Z,99930.06
2022-11-15T16:01:12.808Z,100024.44
2022-11-15T16:03:42.896Z,100090.19
2022-11-15T16:06:36.142Z,100085.00
2022-11-15T16:09:14.967Z,100090.97
2022-11-15T16:11:44.998Z,99988.72
2022-11-15T16:14:13.653Z,99879.00
2022-11-15T16:16:42.134Z,100076.41
2022-11-15T16:19:13.715Z,99962.75
2022-11-15T16:21:42.503Z,99940.19
2022-11-15T16:24:10.996Z,100037.59
2022-11-15T16:26:40.415Z,100004.84
2022-11-15T16:29:11.286Z,100063.38
2022-11-15T16:31:39.990Z,100007.31
2022-11-15T16:34:08.621Z,100049.03
2022-11-15T16:36:38.669Z,100048.38
2022-11-15T16:39:07.652Z,99892.25
2022-11-15T16:41:36.306Z,100060.19
2022-11-15T16:44:04.833Z,100050.25
2022-11-15T16:46:33.738Z,99999.81
2022-11-15T16:49:02.619Z,100047.03
2022-11-15T16:51:31.353Z,99916.28
2022-11-15T16:54:01.323Z,100062.50
2022-11-15T16:56:32.092Z,99852.78
2022-11-15T16:59:01.998Z,100003.72
2022-11-15T17:01:33.714Z,100050.38
2022-11-15T17:04:12.933Z,100062.94
2022-11-15T17:06:41.959Z,99970.13
2022-11-15T17:09:13.072Z,100079.38
2022-11-15T17:11:42.603Z,99908.13
2022-11-15T17:14:11.619Z,100067.50
2022-11-15T17:16:42.694Z,100048.13
2022-11-15T17:19:15.375Z,100030.66
2022-11-15T17:21:44.338Z,100036.88
2022-11-15T17:24:14.419Z,99869.84
2022-11-15T17:26:44.158Z,100056.84
2022-11-15T17:29:12.848Z,100033.28
2022-11-15T17:31:41.309Z,99887.84
2022-11-15T17:34:09.895Z,100062.97
2022-11-15T17:36:38.500Z,100052.97
2022-11-15T17:39:07.384Z,99997.31
2022-11-15T17:41:37.349Z,100031.53
2022-11-15T17:44:08.224Z,100039.63
2022-11-15T17:46:37.254Z,99993.28
2022-11-15T17:49:06.031Z,100045.91
2022-11-15T17:51:35.910Z,99977.75
2022-11-15T17:54:04.420Z,100053.59
2022-11-15T17:56:33.343Z,100062.13
2022-11-15T17:59:13.723Z,100052.59
2022-11-15T18:01:45.496Z,99881.47
2022-11-15T18:04:15.177Z,100059.38
2022-11-15T18:06:43.905Z,100034.69
2022-11-15T18:09:13.860Z,99975.47
2022-11-15T18:11:45.018Z,100069.56
2022-11-15T18:14:16.987Z,99828.91
2022-11-15T18:16:46.557Z,100039.03
2022-11-15T18:19:15.388Z,100068.41
2022-11-15T18:21:59.362Z,99977.97
2022-11-15T18:24:38.695Z,100077.13
2022-11-15T18:27:08.695Z,100079.16
2022-11-15T18:29:39.640Z,100075.44
2022-11-15T18:32:12.712Z,100074.63
2022-11-15T18:34:44.247Z,100068.59
2022-11-15T18:37:13.052Z,99914.09
2022-11-15T18:39:52.657Z,99842.53
2022-11-15T18:42:22.496Z,99826.78
2022-11-15T18:44:56.634Z,100050.56
2022-11-15T18:47:25.294Z,100055.31
2022-11-15T18:49:58.574Z,99925.53
2022-11-15T18:52:28.210Z,100021.91
2022-11-15T18:54:57.921Z,99981.75
2022-11-15T18:57:28.454Z,99972.75
2022-11-15T19:00:00.655Z,100052.63
2022-11-15T19:02:30.365Z,99968.13
2022-11-15T19:04:59.897Z,99908.25
2022-11-15T19:07:28.598Z,100084.09
2022-11-15T19:09:57.544Z,100082.41
2022-11-15T19:12:26.111Z,100067.47
2022-11-15T19:14:56.740Z,99779.84
2022-11-15T19:17:28.525Z,99767.78
2022-11-15T19:19:58.239Z,99855.66
2022-11-15T19:22:30.174Z,99899.50
2022-11-15T19:25:04.859Z,99758.38
2022-11-15T19:27:49.600Z,99943.47
2022-11-15T19:30:18.901Z,100063.00
2022-11-15T19:32:50.060Z,100071.28
2022-11-15T19:35:23.329Z,99900.59
2022-11-15T19:37:59.790Z,99604.38
2022-11-15T19:40:33.258Z,99633.16
2022-11-15T19:43:03.461Z,99999.84
2022-11-15T19:45:37.763Z,99786.16
2022-11-15T19:48:08.402Z,99914.00
2022-11-15T19:50:44.257Z,99825.44
2022-11-15T19:53:25.124Z,99856.59
2022-11-15T19:55:57.148Z,100052.94
2022-11-15T19:58:34.147Z,100046.53
2022-11-15T20:01:07.667Z,99791.59
2022-11-15T20:03:44.048Z,99971.28
2022-11-15T20:06:15.937Z,99824.28
2022-11-15T20:09:03.683Z,100026.63
2022-11-15T20:11:35.116Z,99981.78
2022-11-15T20:14:30.490Z,100042.75
2022-11-15T20:16:59.307Z,99905.75
2022-11-15T20:19:32.444Z,99876.84
2022-11-15T20:22:01.545Z,100031.91
2022-11-15T20:24:40.158Z,99966.78
2022-11-15T20:27:12.099Z,99958.63
2022-11-15T20:29:43.889Z,99813.72
2022-11-15T20:32:47.893Z,100020.69
2022-11-15T20:35:18.147Z,100006.69
2022-11-15T20:38:20.782Z,100015.22
2022-11-15T20:40:59.009Z,100026.16
2022-11-15T20:43:28.885Z,99895.41
2022-11-15T20:45:57.413Z,100030.34
2022-11-15T20:48:33.062Z,100034.50
2022-11-15T20:51:12.424Z,99893.38
2022-11-15T20:53:50.208Z,99912.34
2022-11-15T20:56:22.943Z,99880.88
2022-11-15T20:58:55.104Z,99970.50
2022-11-15T21:01:26.038Z,100030.81
2022-11-15T21:03:55.301Z,99839.56
2022-11-15T21:06:35.013Z,100059.84
2022-11-15T21:09:23.196Z,99986.72
2022-11-15T21:12:14.060Z,100075.22
2022-11-15T21:14:46.683Z,100027.28
2022-11-15T21:17:19.117Z,100096.44
2022-11-15T21:19:47.971Z,100078.22
2022-11-15T21:22:25.056Z,99951.72
2022-11-15T21:24:54.808Z,100080.63
2022-11-15T21:27:25.259Z,100056.78
2022-11-15T21:29:55.867Z,99931.44
2022-11-15T21:32:30.725Z,99977.19
2022-11-15T21:35:00.832Z,100156.56
2022-11-15T21:38:06.826Z,100154.53
2022-11-15T21:40:35.378Z,100084.50
2022-11-15T21:43:03.956Z,100010.53
2022-11-15T21:45:36.189Z,100088.88
2022-11-15T21:48:14.433Z,100129.31
2022-11-15T21:51:08.704Z,100194.16
2022-11-15T21:54:12.409Z,100211.72
2022-11-15T21:56:48.140Z,100004.44
2022-11-15T22:09:07.962Z,99942.94
2022-11-15T22:16:22.123Z,100055.13
2022-11-15T22:23:25.166Z,99816.91
2022-11-15T22:30:37.531Z,99882.56
2022-11-15T22:42:32.497Z,100077.78
2022-11-15T22:54:33.241Z,100078.44
2022-11-15T23:06:42.582Z,99861.91
2022-11-15T23:09:23.114Z,99904.47
2022-11-15T23:12:13.651Z,99881.13
2022-11-15T23:15:11.817Z,100114.94
2022-11-15T23:18:11.427Z,100119.53
2022-11-15T23:20:43.441Z,100137.63
2022-11-15T23:23:13.874Z,100097.50
2022-11-15T23:25:43.085Z,100131.44
2022-11-15T23:28:17.936Z,100040.63
2022-11-15T23:31:04.981Z,100068.03
2022-11-15T23:33:53.976Z,99989.84
2022-11-15T23:36:26.557Z,99949.91
2022-11-15T23:38:57.044Z,100063.81
2022-11-15T23:41:27.878Z,100089.88
2022-11-15T23:43:56.533Z,99971.13
2022-11-15T23:46:26.488Z,100094.78
2022-11-15T23:48:56.259Z,100031.19
2022-11-15T23:51:32.209Z,99860.25
2022-11-15T23:54:02.516Z,99931.72
2022-11-15T23:56:32.457Z,100110.22
2022-11-15T23:59:02.467Z,99962.97
